LESTER weather

Lesters Field
Augusta, Arkansas, United States

Public forecast

Using degrees Fahrenheit for public forecast. Weather courtesy of forecast.io.

METAR (pilot weather report)

Closest report is Searcy Municipal Airport, 19.8 nm (36.8 km) WSW. Retrieved 2019/07/20 15:56 UTC (1 hour ago):

KSRC 201556Z AUTO VRB06KT 10SM CLR 32/26 A2999 RMK AO2 SLP155 T03170261

TAF (pilot weather forecast)

Closest forecast is Little Rock Air Force Base, 45.2 nm (83.8 km) WSW. Retrieved 2019/07/20 15:27 UTC (1 hour ago):

TAF KLRF 201500Z 2015/2121 VRB06KT 9999 FEW030 QNH2998INS BECMG 2016/2017 21012KT 9999 SCT050 QNH2989INS BECMG 2100/2101 VRB06KT 9999 FEW035 QNH2988INS BECMG 2113/2114 22009KT 9999 FEW045 QNH2991INS TX35/2021Z TN25/2111Z